sensor_id;sensor_type;location;lat;lon;timestamp;temperature;humidity
23471;DHT22;11908;50.806;4.424;2023-04-24T00:00:57;9.80;99.90
23471;DHT22;11908;50.806;4.424;2023-04-24T00:03:24;9.80;99.90
23471;DHT22;11908;50.806;4.424;2023-04-24T00:05:50;9.70;99.90
23471;DHT22;11908;50.806;4.424;2023-04-24T00:08:16;9.70;99.90
23471;DHT22;11908;50.806;4.424;2023-04-24T00:10:42;9.70;99.90
23471;DHT22;11908;50.806;4.424;2023-04-24T00:13:08;9.70;99.90
23471;DHT22;11908;50.806;4.424;2023-04-24T00:15:34;9.70;99.90
23471;DHT22;11908;50.806;4.424;2023-04-24T00:17:59;9.70;99.90
23471;DHT22;11908;50.806;4.424;2023-04-24T00:20:27;9.70;99.90
23471;DHT22;11908;50.806;4.424;2023-04-24T00:22:55;9.60;99.90
23471;DHT22;11908;50.806;4.424;2023-04-24T00:25:21;9.60;99.90
23471;DHT22;11908;50.806;4.424;2023-04-24T00:27:46;9.60;99.90
23471;DHT22;11908;50.806;4.424;2023-04-24T00:30:12;9.70;99.90
23471;DHT22;11908;50.806;4.424;2023-04-24T00:32:38;9.80;99.90
23471;DHT22;11908;50.806;4.424;2023-04-24T00:35:04;9.80;99.90
23471;DHT22;11908;50.806;4.424;2023-04-24T00:37:31;9.80;99.90
23471;DHT22;11908;50.806;4.424;2023-04-24T00:39:57;9.70;99.90
23471;DHT22;11908;50.806;4.424;2023-04-24T00:42:23;9.60;99.90
23471;DHT22;11908;50.806;4.424;2023-04-24T00:44:49;9.60;99.90
23471;DHT22;11908;50.806;4.424;2023-04-24T00:47:15;9.70;99.90
23471;DHT22;11908;50.806;4.424;2023-04-24T00:49:41;9.70;99.90
23471;DHT22;11908;50.806;4.424;2023-04-24T00:52:06;9.70;99.90
23471;DHT22;11908;50.806;4.424;2023-04-24T00:54:34;9.60;99.90
23471;DHT22;11908;50.806;4.424;2023-04-24T00:57:02;9.60;99.90
23471;DHT22;11908;50.806;4.424;2023-04-24T00:59:28;9.60;99.90
23471;DHT22;11908;50.806;4.424;2023-04-24T01:04:19;9.70;99.90
23471;DHT22;11908;50.806;4.424;2023-04-24T01:06:45;9.70;99.90
23471;DHT22;11908;50.806;4.424;2023-04-24T01:09:12;9.60;99.90
23471;DHT22;11908;50.806;4.424;2023-04-24T01:11:38;9.60;99.90
23471;DHT22;11908;50.806;4.424;2023-04-24T01:14:04;9.50;99.90
23471;DHT22;11908;50.806;4.424;2023-04-24T01:16:29;9.50;99.90
23471;DHT22;11908;50.806;4.424;2023-04-24T01:19:10;9.50;99.90
23471;DHT22;11908;50.806;4.424;2023-04-24T01:21:37;9.50;99.90
23471;DHT22;11908;50.806;4.424;2023-04-24T01:24:04;9.40;99.90
23471;DHT22;11908;50.806;4.424;2023-04-24T01:26:30;9.40;99.90
23471;DHT22;11908;50.806;4.424;2023-04-24T01:28:56;9.30;99.90
23471;DHT22;11908;50.806;4.424;2023-04-24T01:31:22;9.30;99.90
23471;DHT22;11908;50.806;4.424;2023-04-24T01:33:49;9.20;99.90
23471;DHT22;11908;50.806;4.424;2023-04-24T01:36:16;9.20;99.90
23471;DHT22;11908;50.806;4.424;2023-04-24T01:38:42;9.20;99.90
23471;DHT22;11908;50.806;4.424;2023-04-24T01:41:07;9.30;99.90
23471;DHT22;11908;50.806;4.424;2023-04-24T01:43:33;9.30;99.90
23471;DHT22;11908;50.806;4.424;2023-04-24T01:45:59;9.30;99.90
23471;DHT22;11908;50.806;4.424;2023-04-24T01:48:25;9.20;99.90
23471;DHT22;11908;50.806;4.424;2023-04-24T01:50:51;9.30;99.90
23471;DHT22;11908;50.806;4.424;2023-04-24T01:53:17;9.20;99.90
23471;DHT22;11908;50.806;4.424;2023-04-24T01:55:42;9.20;99.90
23471;DHT22;11908;50.806;4.424;2023-04-24T01:58:08;9.20;99.90
23471;DHT22;11908;50.806;4.424;2023-04-24T02:00:34;9.20;99.90
23471;DHT22;11908;50.806;4.424;2023-04-24T02:02:59;9.10;99.90
23471;DHT22;11908;50.806;4.424;2023-04-24T02:05:27;9.10;99.90
23471;DHT22;11908;50.806;4.424;2023-04-24T02:07:53;9.00;99.90
23471;DHT22;11908;50.806;4.424;2023-04-24T02:10:19;9.00;99.90
23471;DHT22;11908;50.806;4.424;2023-04-24T02:12:44;8.90;99.90
23471;DHT22;11908;50.806;4.424;2023-04-24T02:15:10;8.90;99.90
23471;DHT22;11908;50.806;4.424;2023-04-24T02:17:37;9.00;99.90
23471;DHT22;11908;50.806;4.424;2023-04-24T02:20:02;8.90;99.90
23471;DHT22;11908;50.806;4.424;2023-04-24T02:22:28;8.90;99.90
23471;DHT22;11908;50.806;4.424;2023-04-24T02:24:55;9.00;99.90
23471;DHT22;11908;50.806;4.424;2023-04-24T02:27:20;9.00;99.90
23471;DHT22;11908;50.806;4.424;2023-04-24T02:29:46;9.00;99.90
23471;DHT22;11908;50.806;4.424;2023-04-24T02:32:12;9.00;99.90
23471;DHT22;11908;50.806;4.424;2023-04-24T02:34:38;8.90;99.90
23471;DHT22;11908;50.806;4.424;2023-04-24T02:37:04;8.90;99.90
23471;DHT22;11908;50.806;4.424;2023-04-24T02:39:29;8.80;99.90
23471;DHT22;11908;50.806;4.424;2023-04-24T02:41:55;8.90;99.90
23471;DHT22;11908;50.806;4.424;2023-04-24T02:44:21;8.90;99.90
23471;DHT22;11908;50.806;4.424;2023-04-24T02:46:47;8.90;99.90
23471;DHT22;11908;50.806;4.424;2023-04-24T02:49:13;8.90;99.90
23471;DHT22;11908;50.806;4.424;2023-04-24T02:51:39;8.90;99.90
23471;DHT22;11908;50.806;4.424;2023-04-24T02:54:07;9.00;99.90
23471;DHT22;11908;50.806;4.424;2023-04-24T02:56:33;9.00;99.90
23471;DHT22;11908;50.806;4.424;2023-04-24T02:58:59;8.90;99.90
23471;DHT22;11908;50.806;4.424;2023-04-24T03:01:25;8.90;99.90
23471;DHT22;11908;50.806;4.424;2023-04-24T03:03:51;8.80;99.90
23471;DHT22;11908;50.806;4.424;2023-04-24T03:06:16;8.90;99.90
23471;DHT22;11908;50.806;4.424;2023-04-24T03:08:42;8.80;99.90
23471;DHT22;11908;50.806;4.424;2023-04-24T03:11:08;8.90;99.90
23471;DHT22;11908;50.806;4.424;2023-04-24T03:13:33;8.90;99.90
23471;DHT22;11908;50.806;4.424;2023-04-24T03:15:59;8.80;99.90
23471;DHT22;11908;50.806;4.424;2023-04-24T03:18:25;8.80;99.90
23471;DHT22;11908;50.806;4.424;2023-04-24T03:20:51;8.80;99.90
23471;DHT22;11908;50.806;4.424;2023-04-24T03:23:16;8.80;99.90
23471;DHT22;11908;50.806;4.424;2023-04-24T03:25:42;8.80;99.90
23471;DHT22;11908;50.806;4.424;2023-04-24T03:28:08;8.90;99.90
23471;DHT22;11908;50.806;4.424;2023-04-24T03:30:34;9.00;99.90
23471;DHT22;11908;50.806;4.424;2023-04-24T03:33:00;9.00;99.90
23471;DHT22;11908;50.806;4.424;2023-04-24T03:35:26;9.00;99.90
23471;DHT22;11908;50.806;4.424;2023-04-24T03:37:51;8.90;99.90
23471;DHT22;11908;50.806;4.424;2023-04-24T03:40:17;8.90;99.90
23471;DHT22;11908;50.806;4.424;2023-04-24T03:42:43;8.90;99.90
23471;DHT22;11908;50.806;4.424;2023-04-24T03:45:09;8.80;99.90
23471;DHT22;11908;50.806;4.424;2023-04-24T03:47:35;8.80;99.90
23471;DHT22;11908;50.806;4.424;2023-04-24T03:50:00;8.80;99.90
23471;DHT22;11908;50.806;4.424;2023-04-24T03:52:26;8.80;99.90
23471;DHT22;11908;50.806;4.424;2023-04-24T03:54:52;8.80;99.90
23471;DHT22;11908;50.806;4.424;2023-04-24T03:57:17;8.90;99.90
23471;DHT22;11908;50.806;4.424;2023-04-24T03:59:43;8.90;99.90
23471;DHT22;11908;50.806;4.424;2023-04-24T04:02:09;9.00;99.90
23471;DHT22;11908;50.806;4.424;2023-04-24T04:04:34;9.00;99.90
23471;DHT22;11908;50.806;4.424;2023-04-24T04:07:00;9.00;99.90
23471;DHT22;11908;50.806;4.424;2023-04-24T04:09:28;9.00;99.90
23471;DHT22;11908;50.806;4.424;2023-04-24T04:11:54;9.10;99.90
23471;DHT22;11908;50.806;4.424;2023-04-24T04:14:21;9.10;99.90
23471;DHT22;11908;50.806;4.424;2023-04-24T04:16:46;9.10;99.90
23471;DHT22;11908;50.806;4.424;2023-04-24T04:19:12;9.10;99.90
23471;DHT22;11908;50.806;4.424;2023-04-24T04:21:38;9.20;99.90
23471;DHT22;11908;50.806;4.424;2023-04-24T04:24:03;9.20;99.90
23471;DHT22;11908;50.806;4.424;2023-04-24T04:26:30;9.20;99.90
23471;DHT22;11908;50.806;4.424;2023-04-24T04:28:58;9.30;99.90
23471;DHT22;11908;50.806;4.424;2023-04-24T04:31:24;9.20;99.90
23471;DHT22;11908;50.806;4.424;2023-04-24T04:33:50;9.30;99.90
23471;DHT22;11908;50.806;4.424;2023-04-24T04:36:15;9.40;99.90
23471;DHT22;11908;50.806;4.424;2023-04-24T04:38:42;9.30;99.90
23471;DHT22;11908;50.806;4.424;2023-04-24T04:41:10;9.30;99.90
23471;DHT22;11908;50.806;4.424;2023-04-24T04:43:36;9.40;99.90
23471;DHT22;11908;50.806;4.424;2023-04-24T04:46:01;9.40;99.90
23471;DHT22;11908;50.806;4.424;2023-04-24T04:48:29;9.30;99.90
23471;DHT22;11908;50.806;4.424;2023-04-24T04:50:57;9.30;99.90
23471;DHT22;11908;50.806;4.424;2023-04-24T04:53:22;9.30;99.90
23471;DHT22;11908;50.806;4.424;2023-04-24T04:55:48;9.30;99.90
23471;DHT22;11908;50.806;4.424;2023-04-24T04:58:14;9.30;99.90
23471;DHT22;11908;50.806;4.424;2023-04-24T05:00:39;9.20;99.90
23471;DHT22;11908;50.806;4.424;2023-04-24T05:03:06;9.10;99.90
23471;DHT22;11908;50.806;4.424;2023-04-24T05:05:32;9.10;99.90
23471;DHT22;11908;50.806;4.424;2023-04-24T05:07:58;9.10;99.90
23471;DHT22;11908;50.806;4.424;2023-04-24T05:10:23;9.10;99.90
23471;DHT22;11908;50.806;4.424;2023-04-24T05:12:49;9.10;99.90
23471;DHT22;11908;50.806;4.424;2023-04-24T05:15:15;9.10;99.90
23471;DHT22;11908;50.806;4.424;2023-04-24T05:17:40;9.00;99.90
23471;DHT22;11908;50.806;4.424;2023-04-24T05:20:07;9.00;99.90
23471;DHT22;11908;50.806;4.424;2023-04-24T05:22:32;9.10;99.90
23471;DHT22;11908;50.806;4.424;2023-04-24T05:24:58;9.10;99.90
23471;DHT22;11908;50.806;4.424;2023-04-24T05:27:24;9.10;99.90
23471;DHT22;11908;50.806;4.424;2023-04-24T05:29:50;9.20;99.90
23471;DHT22;11908;50.806;4.424;2023-04-24T05:32:16;9.20;99.90
23471;DHT22;11908;50.806;4.424;2023-04-24T05:34:42;9.30;99.90
23471;DHT22;11908;50.806;4.424;2023-04-24T05:37:08;9.10;99.90
23471;DHT22;11908;50.806;4.424;2023-04-24T05:39:35;9.00;99.90
23471;DHT22;11908;50.806;4.424;2023-04-24T05:42:02;9.00;99.90
23471;DHT22;11908;50.806;4.424;2023-04-24T05:44:28;9.00;99.90
23471;DHT22;11908;50.806;4.424;2023-04-24T05:46:54;9.00;99.90
23471;DHT22;11908;50.806;4.424;2023-04-24T05:49:21;9.10;99.90
23471;DHT22;11908;50.806;4.424;2023-04-24T05:51:47;9.10;99.90
23471;DHT22;11908;50.806;4.424;2023-04-24T05:54:12;9.20;99.90
23471;DHT22;11908;50.806;4.424;2023-04-24T05:56:39;9.10;99.90
23471;DHT22;11908;50.806;4.424;2023-04-24T05:59:04;9.10;99.90
23471;DHT22;11908;50.806;4.424;2023-04-24T06:01:30;9.10;99.90
23471;DHT22;11908;50.806;4.424;2023-04-24T06:03:56;9.10;99.90
23471;DHT22;11908;50.806;4.424;2023-04-24T06:06:23;9.00;99.90
23471;DHT22;11908;50.806;4.424;2023-04-24T06:08:49;9.00;99.90
23471;DHT22;11908;50.806;4.424;2023-04-24T06:11:15;9.00;99.90
23471;DHT22;11908;50.806;4.424;2023-04-24T06:13:41;9.00;99.90
23471;DHT22;11908;50.806;4.424;2023-04-24T06:16:07;9.00;99.90
23471;DHT22;11908;50.806;4.424;2023-04-24T06:18:32;8.90;99.90
23471;DHT22;11908;50.806;4.424;2023-04-24T06:20:58;8.90;99.90
23471;DHT22;11908;50.806;4.424;2023-04-24T06:23:24;8.90;99.90
23471;DHT22;11908;50.806;4.424;2023-04-24T06:25:49;8.90;99.90
23471;DHT22;11908;50.806;4.424;2023-04-24T06:28:15;9.00;99.90
23471;DHT22;11908;50.806;4.424;2023-04-24T06:30:41;8.90;99.90
23471;DHT22;11908;50.806;4.424;2023-04-24T06:33:07;9.00;99.90
23471;DHT22;11908;50.806;4.424;2023-04-24T06:35:32;9.00;99.90
23471;DHT22;11908;50.806;4.424;2023-04-24T06:37:58;9.00;99.90
23471;DHT22;11908;50.806;4.424;2023-04-24T06:40:24;9.20;99.90
23471;DHT22;11908;50.806;4.424;2023-04-24T06:42:49;9.10;99.90
23471;DHT22;11908;50.806;4.424;2023-04-24T06:45:15;9.10;99.90
23471;DHT22;11908;50.806;4.424;2023-04-24T06:47:41;9.10;99.90
23471;DHT22;11908;50.806;4.424;2023-04-24T06:50:07;9.00;99.90
23471;DHT22;11908;50.806;4.424;2023-04-24T06:52:32;9.00;99.90
23471;DHT22;11908;50.806;4.424;2023-04-24T06:55:02;9.10;99.90
23471;DHT22;11908;50.806;4.424;2023-04-24T06:57:29;9.10;99.90
23471;DHT22;11908;50.806;4.424;2023-04-24T06:59:55;9.20;99.90
23471;DHT22;11908;50.806;4.424;2023-04-24T07:02:21;9.30;99.90
23471;DHT22;11908;50.806;4.424;2023-04-24T07:04:46;9.40;99.90
23471;DHT22;11908;50.806;4.424;2023-04-24T07:07:13;9.50;99.90
23471;DHT22;11908;50.806;4.424;2023-04-24T07:09:40;9.60;99.90
23471;DHT22;11908;50.806;4.424;2023-04-24T07:12:11;9.70;99.90
23471;DHT22;11908;50.806;4.424;2023-04-24T07:14:37;9.70;99.90
23471;DHT22;11908;50.806;4.424;2023-04-24T07:17:06;9.90;99.90
23471;DHT22;11908;50.806;4.424;2023-04-24T07:19:33;9.70;99.90
23471;DHT22;11908;50.806;4.424;2023-04-24T07:21:59;9.70;99.90
23471;DHT22;11908;50.806;4.424;2023-04-24T07:24:25;9.70;99.90
23471;DHT22;11908;50.806;4.424;2023-04-24T07:26:51;9.70;99.90
23471;DHT22;11908;50.806;4.424;2023-04-24T07:29:17;9.90;99.90
23471;DHT22;11908;50.806;4.424;2023-04-24T07:31:43;10.00;99.90
23471;DHT22;11908;50.806;4.424;2023-04-24T07:34:09;9.90;99.90
23471;DHT22;11908;50.806;4.424;2023-04-24T07:36:35;10.00;99.90
23471;DHT22;11908;50.806;4.424;2023-04-24T07:39:01;10.10;99.90
23471;DHT22;11908;50.806;4.424;2023-04-24T07:41:26;10.20;99.90
23471;DHT22;11908;50.806;4.424;2023-04-24T07:43:53;10.30;99.90
23471;DHT22;11908;50.806;4.424;2023-04-24T07:46:19;10.30;99.90
23471;DHT22;11908;50.806;4.424;2023-04-24T07:48:45;10.20;99.90
23471;DHT22;11908;50.806;4.424;2023-04-24T07:51:14;10.20;99.90
23471;DHT22;11908;50.806;4.424;2023-04-24T07:53:39;10.20;99.90
23471;DHT22;11908;50.806;4.424;2023-04-24T07:56:05;10.10;99.90
23471;DHT22;11908;50.806;4.424;2023-04-24T07:58:31;10.20;99.90
23471;DHT22;11908;50.806;4.424;2023-04-24T08:00:57;10.40;99.90
23471;DHT22;11908;50.806;4.424;2023-04-24T08:03:22;10.50;99.90
23471;DHT22;11908;50.806;4.424;2023-04-24T08:05:49;10.40;99.90
23471;DHT22;11908;50.806;4.424;2023-04-24T08:08:16;10.50;99.90
23471;DHT22;11908;50.806;4.424;2023-04-24T08:10:42;10.50;99.90
23471;DHT22;11908;50.806;4.424;2023-04-24T08:13:07;10.50;99.90
23471;DHT22;11908;50.806;4.424;2023-04-24T08:15:33;10.60;99.90
23471;DHT22;11908;50.806;4.424;2023-04-24T08:17:59;10.40;99.90
23471;DHT22;11908;50.806;4.424;2023-04-24T08:20:25;10.30;99.90
23471;DHT22;11908;50.806;4.424;2023-04-24T08:22:50;10.40;99.90
23471;DHT22;11908;50.806;4.424;2023-04-24T08:25:16;10.50;99.90
23471;DHT22;11908;50.806;4.424;2023-04-24T08:27:43;10.60;99.90
23471;DHT22;11908;50.806;4.424;2023-04-24T08:30:09;10.60;99.90
23471;DHT22;11908;50.806;4.424;2023-04-24T08:32:35;10.60;99.90
23471;DHT22;11908;50.806;4.424;2023-04-24T08:35:01;10.70;99.90
23471;DHT22;11908;50.806;4.424;2023-04-24T08:37:27;10.90;99.90
23471;DHT22;11908;50.806;4.424;2023-04-24T08:39:53;10.90;99.90
23471;DHT22;11908;50.806;4.424;2023-04-24T08:42:19;11.20;99.90
23471;DHT22;11908;50.806;4.424;2023-04-24T08:44:45;11.30;99.90
23471;DHT22;11908;50.806;4.424;2023-04-24T08:47:12;11.60;99.90
23471;DHT22;11908;50.806;4.424;2023-04-24T08:49:38;12.00;99.90
23471;DHT22;11908;50.806;4.424;2023-04-24T08:52:05;12.70;99.90
23471;DHT22;11908;50.806;4.424;2023-04-24T08:54:31;13.10;99.90
23471;DHT22;11908;50.806;4.424;2023-04-24T08:57:00;13.70;99.90
23471;DHT22;11908;50.806;4.424;2023-04-24T08:59:27;14.60;99.90
23471;DHT22;11908;50.806;4.424;2023-04-24T09:01:55;15.50;99.90
23471;DHT22;11908;50.806;4.424;2023-04-24T09:04:22;16.00;99.90
23471;DHT22;11908;50.806;4.424;2023-04-24T09:06:56;16.30;99.90
23471;DHT22;11908;50.806;4.424;2023-04-24T09:09:23;16.00;99.90
23471;DHT22;11908;50.806;4.424;2023-04-24T09:11:50;16.20;99.90
23471;DHT22;11908;50.806;4.424;2023-04-24T09:14:17;16.30;99.90
23471;DHT22;11908;50.806;4.424;2023-04-24T09:16:43;16.20;99.90
23471;DHT22;11908;50.806;4.424;2023-04-24T09:19:08;16.10;99.90
23471;DHT22;11908;50.806;4.424;2023-04-24T09:21:35;16.00;99.90
23471;DHT22;11908;50.806;4.424;2023-04-24T09:24:03;15.90;99.90
23471;DHT22;11908;50.806;4.424;2023-04-24T09:26:31;15.40;99.90
23471;DHT22;11908;50.806;4.424;2023-04-24T09:28:58;14.80;99.90
23471;DHT22;11908;50.806;4.424;2023-04-24T09:31:23;14.10;99.90
23471;DHT22;11908;50.806;4.424;2023-04-24T09:33:56;13.90;99.90
23471;DHT22;11908;50.806;4.424;2023-04-24T09:36:33;13.60;99.90
23471;DHT22;11908;50.806;4.424;2023-04-24T09:39:00;13.00;99.90
23471;DHT22;11908;50.806;4.424;2023-04-24T09:41:26;12.70;99.90
23471;DHT22;11908;50.806;4.424;2023-04-24T09:43:56;12.60;99.90
23471;DHT22;11908;50.806;4.424;2023-04-24T09:46:29;12.90;99.90
23471;DHT22;11908;50.806;4.424;2023-04-24T09:48:56;14.00;99.90
23471;DHT22;11908;50.806;4.424;2023-04-24T09:51:36;15.50;99.90
23471;DHT22;11908;50.806;4.424;2023-04-24T09:54:24;16.30;99.90
23471;DHT22;11908;50.806;4.424;2023-04-24T09:56:50;16.10;99.90
23471;DHT22;11908;50.806;4.424;2023-04-24T09:59:19;15.40;99.90
23471;DHT22;11908;50.806;4.424;2023-04-24T10:01:45;14.50;99.90
23471;DHT22;11908;50.806;4.424;2023-04-24T10:04:24;13.90;99.90
23471;DHT22;11908;50.806;4.424;2023-04-24T10:06:51;13.40;99.90
23471;DHT22;11908;50.806;4.424;2023-04-24T10:09:19;13.20;99.90
23471;DHT22;11908;50.806;4.424;2023-04-24T10:11:47;13.20;99.90
23471;DHT22;11908;50.806;4.424;2023-04-24T10:14:17;13.20;99.90
23471;DHT22;11908;50.806;4.424;2023-04-24T10:16:44;13.30;99.90
23471;DHT22;11908;50.806;4.424;2023-04-24T10:19:12;13.20;99.90
23471;DHT22;11908;50.806;4.424;2023-04-24T10:21:40;13.20;99.90
23471;DHT22;11908;50.806;4.424;2023-04-24T10:24:12;13.00;99.90
23471;DHT22;11908;50.806;4.424;2023-04-24T10:26:38;12.80;99.90
23471;DHT22;11908;50.806;4.424;2023-04-24T10:29:06;12.80;99.90
23471;DHT22;11908;50.806;4.424;2023-04-24T10:31:36;13.00;99.90
23471;DHT22;11908;50.806;4.424;2023-04-24T10:34:02;13.10;99.90
23471;DHT22;11908;50.806;4.424;2023-04-24T10:36:30;13.30;99.90
23471;DHT22;11908;50.806;4.424;2023-04-24T10:38:59;13.10;99.90
23471;DHT22;11908;50.806;4.424;2023-04-24T10:41:26;12.90;99.90
23471;DHT22;11908;50.806;4.424;2023-04-24T10:44:06;12.70;99.90
23471;DHT22;11908;50.806;4.424;2023-04-24T10:46:32;12.50;99.90
23471;DHT22;11908;50.806;4.424;2023-04-24T10:48:58;12.50;99.90
23471;DHT22;11908;50.806;4.424;2023-04-24T10:51:24;12.60;99.90
23471;DHT22;11908;50.806;4.424;2023-04-24T10:53:51;12.70;99.90
23471;DHT22;11908;50.806;4.424;2023-04-24T10:56:17;12.90;99.90
23471;DHT22;11908;50.806;4.424;2023-04-24T10:58:51;12.90;99.90
23471;DHT22;11908;50.806;4.424;2023-04-24T11:01:31;12.90;99.90
23471;DHT22;11908;50.806;4.424;2023-04-24T11:04:02;13.30;99.90
23471;DHT22;11908;50.806;4.424;2023-04-24T11:06:29;13.60;99.90
23471;DHT22;11908;50.806;4.424;2023-04-24T11:09:07;13.70;99.90
23471;DHT22;11908;50.806;4.424;2023-04-24T11:11:35;13.70;99.90
23471;DHT22;11908;50.806;4.424;2023-04-24T11:14:02;13.90;99.90
23471;DHT22;11908;50.806;4.424;2023-04-24T11:16:54;13.90;99.90
23471;DHT22;11908;50.806;4.424;2023-04-24T11:19:24;13.80;99.90
23471;DHT22;11908;50.806;4.424;2023-04-24T11:22:02;13.80;99.90
23471;DHT22;11908;50.806;4.424;2023-04-24T11:24:29;13.80;99.90
23471;DHT22;11908;50.806;4.424;2023-04-24T11:27:26;14.10;99.90
23471;DHT22;11908;50.806;4.424;2023-04-24T11:32:33;14.80;99.90
23471;DHT22;11908;50.806;4.424;2023-04-24T11:35:02;15.20;99.90
23471;DHT22;11908;50.806;4.424;2023-04-24T11:37:38;15.20;99.90
23471;DHT22;11908;50.806;4.424;2023-04-24T11:40:06;15.00;99.90
23471;DHT22;11908;50.806;4.424;2023-04-24T11:42:40;14.90;99.90
23471;DHT22;11908;50.806;4.424;2023-04-24T11:45:11;14.60;99.90
23471;DHT22;11908;50.806;4.424;2023-04-24T11:47:37;14.60;99.90
23471;DHT22;11908;50.806;4.424;2023-04-24T11:50:04;14.50;99.90
23471;DHT22;11908;50.806;4.424;2023-04-24T11:52:30;14.40;99.90
23471;DHT22;11908;50.806;4.424;2023-04-24T11:54:56;14.40;99.90
23471;DHT22;11908;50.806;4.424;2023-04-24T11:57:24;14.50;99.90
23471;DHT22;11908;50.806;4.424;2023-04-24T11:59:53;14.70;99.90
23471;DHT22;11908;50.806;4.424;2023-04-24T12:02:26;15.00;99.90
23471;DHT22;11908;50.806;4.424;2023-04-24T12:04:55;15.30;99.90
23471;DHT22;11908;50.806;4.424;2023-04-24T12:07:22;15.80;99.90
23471;DHT22;11908;50.806;4.424;2023-04-24T12:09:55;15.70;99.90
23471;DHT22;11908;50.806;4.424;2023-04-24T12:12:22;15.50;99.90
23471;DHT22;11908;50.806;4.424;2023-04-24T12:14:53;15.40;99.90
23471;DHT22;11908;50.806;4.424;2023-04-24T12:17:27;15.60;99.90
23471;DHT22;11908;50.806;4.424;2023-04-24T12:19:58;15.50;99.90
23471;DHT22;11908;50.806;4.424;2023-04-24T12:22:24;15.40;99.90
23471;DHT22;11908;50.806;4.424;2023-04-24T12:25:02;15.00;99.90
23471;DHT22;11908;50.806;4.424;2023-04-24T12:27:32;15.00;99.90
23471;DHT22;11908;50.806;4.424;2023-04-24T12:30:04;14.90;99.90
23471;DHT22;11908;50.806;4.424;2023-04-24T12:32:31;15.50;99.90
23471;DHT22;11908;50.806;4.424;2023-04-24T12:34:57;15.90;99.90
23471;DHT22;11908;50.806;4.424;2023-04-24T12:37:25;15.90;99.90
23471;DHT22;11908;50.806;4.424;2023-04-24T12:40:01;16.00;99.90
23471;DHT22;11908;50.806;4.424;2023-04-24T12:42:28;16.10;99.90
23471;DHT22;11908;50.806;4.424;2023-04-24T12:45:00;16.30;99.90
23471;DHT22;11908;50.806;4.424;2023-04-24T12:47:27;16.50;99.90
23471;DHT22;11908;50.806;4.424;2023-04-24T12:49:53;16.30;99.90
23471;DHT22;11908;50.806;4.424;2023-04-24T12:52:23;16.10;99.90
23471;DHT22;11908;50.806;4.424;2023-04-24T12:54:50;15.70;99.90
23471;DHT22;11908;50.806;4.424;2023-04-24T12:57:17;15.50;99.90
23471;DHT22;11908;50.806;4.424;2023-04-24T12:59:43;15.60;99.90
23471;DHT22;11908;50.806;4.424;2023-04-24T13:02:09;15.40;99.90
23471;DHT22;11908;50.806;4.424;2023-04-24T13:04:35;15.50;99.90
23471;DHT22;11908;50.806;4.424;2023-04-24T13:07:01;15.30;99.90
23471;DHT22;11908;50.806;4.424;2023-04-24T13:09:27;15.30;99.90
23471;DHT22;11908;50.806;4.424;2023-04-24T13:11:54;15.10;99.90
23471;DHT22;11908;50.806;4.424;2023-04-24T13:14:19;15.00;99.90
23471;DHT22;11908;50.806;4.424;2023-04-24T13:16:45;14.90;99.90
23471;DHT22;11908;50.806;4.424;2023-04-24T13:19:11;15.00;99.90
23471;DHT22;11908;50.806;4.424;2023-04-24T13:21:36;15.10;99.90
23471;DHT22;11908;50.806;4.424;2023-04-24T13:24:02;15.10;99.90
23471;DHT22;11908;50.806;4.424;2023-04-24T13:26:30;14.90;99.90
23471;DHT22;11908;50.806;4.424;2023-04-24T13:28:56;15.00;99.90
23471;DHT22;11908;50.806;4.424;2023-04-24T13:31:21;15.30;99.90
23471;DHT22;11908;50.806;4.424;2023-04-24T13:33:47;15.60;99.90
23471;DHT22;11908;50.806;4.424;2023-04-24T13:36:13;15.70;99.90
23471;DHT22;11908;50.806;4.424;2023-04-24T13:38:39;15.80;99.90
23471;DHT22;11908;50.806;4.424;2023-04-24T13:41:04;16.00;99.90
23471;DHT22;11908;50.806;4.424;2023-04-24T13:43:30;16.00;99.90
23471;DHT22;11908;50.806;4.424;2023-04-24T13:45:55;16.00;99.90
23471;DHT22;11908;50.806;4.424;2023-04-24T13:48:21;16.00;99.90
23471;DHT22;11908;50.806;4.424;2023-04-24T13:50:47;15.80;99.90
23471;DHT22;11908;50.806;4.424;2023-04-24T13:53:14;15.60;99.90
23471;DHT22;11908;50.806;4.424;2023-04-24T13:55:40;15.70;99.90
23471;DHT22;11908;50.806;4.424;2023-04-24T13:58:06;15.80;99.90
23471;DHT22;11908;50.806;4.424;2023-04-24T14:00:33;15.70;99.90
23471;DHT22;11908;50.806;4.424;2023-04-24T14:02:58;15.60;99.90
23471;DHT22;11908;50.806;4.424;2023-04-24T14:05:24;15.70;99.90
23471;DHT22;11908;50.806;4.424;2023-04-24T14:07:50;15.60;99.90
23471;DHT22;11908;50.806;4.424;2023-04-24T14:10:16;15.20;99.90
23471;DHT22;11908;50.806;4.424;2023-04-24T14:12:42;15.10;99.90
23471;DHT22;11908;50.806;4.424;2023-04-24T14:15:08;15.30;99.90
23471;DHT22;11908;50.806;4.424;2023-04-24T14:17:34;15.00;99.90
23471;DHT22;11908;50.806;4.424;2023-04-24T14:19:59;14.90;99.90
23471;DHT22;11908;50.806;4.424;2023-04-24T14:22:26;14.90;99.90
23471;DHT22;11908;50.806;4.424;2023-04-24T14:24:51;14.80;99.90
23471;DHT22;11908;50.806;4.424;2023-04-24T14:27:17;14.80;99.90
23471;DHT22;11908;50.806;4.424;2023-04-24T14:29:43;14.90;99.90
23471;DHT22;11908;50.806;4.424;2023-04-24T14:32:10;14.80;99.90
23471;DHT22;11908;50.806;4.424;2023-04-24T14:34:36;14.60;99.90
23471;DHT22;11908;50.806;4.424;2023-04-24T14:37:02;14.30;99.90
23471;DHT22;11908;50.806;4.424;2023-04-24T14:39:28;14.00;99.90
23471;DHT22;11908;50.806;4.424;2023-04-24T14:41:53;13.90;99.90
23471;DHT22;11908;50.806;4.424;2023-04-24T14:44:19;13.90;99.90
23471;DHT22;11908;50.806;4.424;2023-04-24T14:46:45;13.70;99.90
23471;DHT22;11908;50.806;4.424;2023-04-24T14:49:11;13.60;99.90
23471;DHT22;11908;50.806;4.424;2023-04-24T14:51:37;13.60;99.90
23471;DHT22;11908;50.806;4.424;2023-04-24T14:54:03;13.60;99.90
23471;DHT22;11908;50.806;4.424;2023-04-24T14:56:29;13.60;99.90
23471;DHT22;11908;50.806;4.424;2023-04-24T14:58:55;13.30;99.90
23471;DHT22;11908;50.806;4.424;2023-04-24T15:01:21;13.30;99.90
23471;DHT22;11908;50.806;4.424;2023-04-24T15:03:47;13.30;99.90
23471;DHT22;11908;50.806;4.424;2023-04-24T15:06:12;13.40;99.90
23471;DHT22;11908;50.806;4.424;2023-04-24T15:08:38;13.60;99.90
23471;DHT22;11908;50.806;4.424;2023-04-24T15:11:04;13.90;99.90
23471;DHT22;11908;50.806;4.424;2023-04-24T15:13:30;14.10;99.90
23471;DHT22;11908;50.806;4.424;2023-04-24T15:15:56;14.40;99.90
23471;DHT22;11908;50.806;4.424;2023-04-24T15:18:21;14.30;99.90
23471;DHT22;11908;50.806;4.424;2023-04-24T15:20:47;14.50;99.90
23471;DHT22;11908;50.806;4.424;2023-04-24T15:23:13;14.50;99.90
23471;DHT22;11908;50.806;4.424;2023-04-24T15:25:39;14.60;99.90
23471;DHT22;11908;50.806;4.424;2023-04-24T15:28:04;14.30;99.90
23471;DHT22;11908;50.806;4.424;2023-04-24T15:30:31;14.20;99.90
23471;DHT22;11908;50.806;4.424;2023-04-24T15:32:57;14.30;99.90
23471;DHT22;11908;50.806;4.424;2023-04-24T15:35:22;14.20;99.90
23471;DHT22;11908;50.806;4.424;2023-04-24T15:37:48;14.10;99.90
23471;DHT22;11908;50.806;4.424;2023-04-24T15:40:14;14.10;99.90